Time;durP1;ratioP1;P1;durP2;ratioP2;P2;SDS_P1;SDS_P2;PMS_P1;PMS_P2;Temp;Humidity;BMP_temperature;BMP_pressure;BME280_temperature;BME280_humidity;BME280_pressure;Samples;Min_cycle;Max_cycle;Signal;HPM_P1;HPM_P2
2023/03/28 00:00:56;;;;;;;23.47;13.60;;;11.40;84.50;;;;;;4590769;19;20073;-30
2023/03/28 00:02:28;;;;;;;24.53;13.43;;;11.40;83.90;;;;;;4590795;19;21024;-32
2023/03/28 00:04:00;;;;;;;21.95;13.48;;;11.40;84.50;;;;;;4588130;19;20441;-31
2023/03/28 00:05:31;;;;;;;23.40;12.27;;;11.40;84.40;;;;;;4589594;19;20014;-30
2023/03/28 00:07:02;;;;;;;22.67;13.55;;;11.40;84.80;;;;;;4589664;19;20322;-29
2023/03/28 00:08:38;;;;;;;22.13;12.50;;;11.40;84.30;;;;;;4590410;19;20018;-31
2023/03/28 00:10:10;;;;;;;20.17;11.03;;;11.40;84.20;;;;;;4589549;19;20409;-29
2023/03/28 00:11:41;;;;;;;22.23;11.40;;;11.40;84.20;;;;;;4589823;19;21020;-30
2023/03/28 00:13:13;;;;;;;22.03;13.20;;;11.40;84.50;;;;;;4589043;19;20026;-30
2023/03/28 00:14:45;;;;;;;20.30;12.00;;;11.40;85.00;;;;;;4589133;19;20783;-31
2023/03/28 00:16:17;;;;;;;19.35;11.48;;;11.40;84.70;;;;;;4590373;19;20452;-30
2023/03/28 00:17:51;;;;;;;23.92;12.10;;;11.40;84.30;;;;;;4589318;19;20019;-31
2023/03/28 00:19:22;;;;;;;22.97;12.77;;;11.40;84.30;;;;;;4590425;19;20082;-29
2023/03/28 00:20:54;;;;;;;24.07;12.07;;;11.50;84.40;;;;;;4590387;19;20420;-31
2023/03/28 00:22:29;;;;;;;18.65;11.68;;;11.40;84.90;;;;;;4589432;19;20841;-31
2023/03/28 00:24:03;;;;;;;21.60;11.17;;;11.40;84.40;;;;;;4588738;19;20357;-29
2023/03/28 00:25:34;;;;;;;21.23;10.83;;;11.40;84.10;;;;;;4589663;19;20440;-30
2023/03/28 00:27:06;;;;;;;;;;;11.40;84.30;;;;;;4590112;19;20811;-33
2023/03/28 00:28:38;;;;;;;19.05;10.52;;;11.40;84.50;;;;;;4589378;19;20348;-30
2023/03/28 00:30:09;;;;;;;20.42;11.77;;;11.50;84.40;;;;;;4589964;19;20015;-31
2023/03/28 00:31:41;;;;;;;21.60;11.87;;;11.50;84.30;;;;;;4590050;19;20014;-31
2023/03/28 00:33:13;;;;;;;24.43;13.07;;;11.40;84.60;;;;;;4590360;19;20465;-30
2023/03/28 00:34:46;;;;;;;20.20;11.30;;;11.40;84.90;;;;;;4589802;19;20425;-30
2023/03/28 00:36:22;;;;;;;22.80;12.30;;;11.40;84.70;;;;;;4587517;19;20445;-29
2023/03/28 00:37:56;;;;;;;23.20;11.90;;;11.50;84.90;;;;;;4589674;19;20455;-30
2023/03/28 00:39:30;;;;;;;28.53;15.93;;;11.50;84.80;;;;;;4588520;19;20538;-30
2023/03/28 00:41:04;;;;;;;24.27;13.70;;;11.50;84.70;;;;;;4589337;19;20465;-31
2023/03/28 00:42:40;;;;;;;23.17;11.87;;;11.50;85.00;;;;;;4589725;19;20458;-30
2023/03/28 00:44:42;;;;;;;18.57;10.00;;;11.50;84.70;;;;;;4590263;19;20755;-30
2023/03/28 00:46:18;;;;;;;21.70;12.43;;;11.50;84.60;;;;;;4589497;19;20771;-30
2023/03/28 00:48:01;;;;;;;22.83;11.10;;;11.50;84.50;;;;;;4589786;19;20472;-30
2023/03/28 00:49:32;;;;;;;19.47;11.23;;;11.50;84.40;;;;;;4588295;19;20803;-30
2023/03/28 00:51:04;;;;;;;23.05;11.98;;;11.50;84.10;;;;;;4589058;19;20448;-30
2023/03/28 00:52:39;;;;;;;18.55;10.45;;;11.50;84.10;;;;;;4588722;19;20007;-29
2023/03/28 00:54:13;;;;;;;20.50;11.53;;;11.50;83.90;;;;;;4588245;19;20015;-30
2023/03/28 00:55:47;;;;;;;22.40;10.93;;;11.50;84.10;;;;;;4588053;19;20810;-32
2023/03/28 00:57:18;;;;;;;19.63;10.70;;;11.50;84.20;;;;;;4588372;19;20425;-30
2023/03/28 00:58:49;;;;;;;25.55;11.95;;;11.50;83.70;;;;;;4589177;19;20770;-31
2023/03/28 01:00:21;;;;;;;23.33;11.95;;;11.50;83.90;;;;;;4589995;19;20364;-29
2023/03/28 01:01:53;;;;;;;22.08;11.65;;;11.50;84.30;;;;;;4588234;19;20070;-30
2023/03/28 01:03:29;;;;;;;23.27;11.67;;;11.50;84.30;;;;;;4588155;19;20011;-30
2023/03/28 01:05:02;;;;;;;20.07;11.53;;;11.50;84.40;;;;;;4587842;19;20540;-29
2023/03/28 01:06:39;;;;;;;21.70;12.13;;;11.50;84.40;;;;;;4587663;19;20553;-30
2023/03/28 01:08:19;;;;;;;19.97;11.77;;;11.50;84.60;;;;;;4588130;19;20417;-29
2023/03/28 01:09:51;;;;;;;19.50;11.90;;;11.50;85.10;;;;;;4588702;19;20467;-30
2023/03/28 01:11:22;;;;;;;22.27;12.65;;;11.50;85.00;;;;;;4589690;19;20757;-32
2023/03/28 01:12:54;;;;;;;;;;;11.50;85.20;;;;;;4589734;19;20070;-31
2023/03/28 01:14:27;;;;;;;23.67;11.73;;;11.50;85.30;;;;;;4587830;19;19922;-29
2023/03/28 01:16:02;;;;;;;23.70;12.83;;;11.50;85.50;;;;;;4587881;19;20424;-29
2023/03/28 01:17:35;;;;;;;23.17;13.10;;;11.50;85.50;;;;;;4588995;19;20759;-32
2023/03/28 01:19:25;;;;;;;21.67;12.00;;;11.50;85.20;;;;;;4589729;19;20448;-29
2023/03/28 01:21:22;;;;;;;18.93;11.20;;;11.50;85.60;;;;;;4590885;19;20483;-30
2023/03/28 01:23:23;;;;;;;21.97;11.13;;;11.50;85.90;;;;;;4586101;19;21040;-31
2023/03/28 01:25:07;;;;;;;23.17;11.87;;;11.50;85.70;;;;;;4586648;19;20441;-30
2023/03/28 01:27:24;;;;;;;18.63;11.50;;;11.50;85.70;;;;;;4586439;19;20457;-31
2023/03/28 01:29:40;;;;;;;20.23;11.90;;;11.50;86.10;;;;;;4586525;19;20540;-30
2023/03/28 01:31:34;;;;;;;17.02;10.90;;;11.50;86.40;;;;;;4590200;19;20493;-30
2023/03/28 01:33:14;;;;;;;20.47;11.63;;;11.50;86.10;;;;;;4591319;19;20010;-31
2023/03/28 01:35:06;;;;;;;26.90;13.30;;;11.50;86.20;;;;;;4591276;19;20479;-29
2023/03/28 01:36:46;;;;;;;19.43;11.40;;;11.50;86.60;;;;;;4591194;19;20082;-29
2023/03/28 01:38:24;;;;;;;18.60;11.13;;;11.50;86.20;;;;;;4590968;19;20440;-29
2023/03/28 01:40:15;;;;;;;21.53;12.60;;;11.50;86.40;;;;;;4591079;19;20014;-29
2023/03/28 01:42:00;;;;;;;16.47;11.57;;;11.50;85.70;;;;;;4591036;19;20837;-29
2023/03/28 01:43:40;;;;;;;16.50;9.83;;;11.50;85.90;;;;;;4590882;19;20425;-33
2023/03/28 01:45:22;;;;;;;19.40;10.67;;;11.50;85.90;;;;;;4590664;19;20479;-30
2023/03/28 01:47:19;;;;;;;22.30;13.38;;;11.50;86.10;;;;;;4590108;19;20433;-30
2023/03/28 01:49:16;;;;;;;23.33;12.27;;;11.60;86.80;;;;;;4590853;19;20035;-29
2023/03/28 01:50:51;;;;;;;19.30;11.47;;;11.50;86.10;;;;;;4590206;19;20409;-29
2023/03/28 01:52:37;;;;;;;20.07;11.80;;;11.50;87.00;;;;;;4590992;19;20417;-34
2023/03/28 01:54:30;;;;;;;16.20;9.87;;;11.50;86.30;;;;;;4590447;19;20440;-32
2023/03/28 01:56:12;;;;;;;15.83;9.70;;;11.50;86.70;;;;;;4590586;19;20441;-30
2023/03/28 01:57:54;;;;;;;17.70;9.23;;;11.50;86.50;;;;;;4590286;19;20467;-31
2023/03/28 01:59:38;;;;;;;17.60;10.33;;;11.50;86.30;;;;;;4590652;19;20076;-30
2023/03/28 02:01:16;;;;;;;17.57;11.10;;;11.50;86.50;;;;;;4591213;19;20424;-30
2023/03/28 02:02:54;;;;;;;18.27;10.77;;;11.50;86.30;;;;;;4590416;19;20417;-29
2023/03/28 02:04:28;;;;;;;15.27;9.07;;;11.50;86.90;;;;;;4590555;19;20563;-30
2023/03/28 02:05:59;;;;;;;15.10;10.17;;;11.50;86.90;;;;;;4591626;19;20421;-30
2023/03/28 02:07:32;;;;;;;18.13;9.63;;;11.50;86.60;;;;;;4590144;19;20812;-31
2023/03/28 02:09:06;;;;;;;16.73;9.63;;;11.50;86.80;;;;;;4591912;19;21100;-31
2023/03/28 02:10:40;;;;;;;15.23;9.63;;;11.50;87.00;;;;;;4591427;19;20428;-30
2023/03/28 02:12:17;;;;;;;13.37;9.03;;;11.50;86.50;;;;;;4592078;19;20496;-30
2023/03/28 02:13:55;;;;;;;18.00;10.00;;;11.50;86.40;;;;;;4591342;19;21350;-30
2023/03/28 02:15:26;;;;;;;14.40;9.13;;;11.40;86.40;;;;;;4592839;19;20906;-29
2023/03/28 02:17:03;;;;;;;15.20;9.57;;;11.40;87.10;;;;;;4592337;19;20787;-30
2023/03/28 02:18:37;;;;;;;14.20;9.30;;;11.50;86.80;;;;;;4591764;19;20536;-30
2023/03/28 02:20:10;;;;;;;15.80;9.67;;;11.50;87.10;;;;;;4591399;19;20429;-30
2023/03/28 02:22:23;;;;;;;14.03;9.17;;;11.50;87.50;;;;;;4591768;19;20532;-30
2023/03/28 02:23:55;;;;;;;15.77;9.37;;;11.50;87.70;;;;;;4590863;19;20428;-31
2023/03/28 02:25:26;;;;;;;14.33;8.33;;;11.50;87.60;;;;;;4589929;19;20760;-29
2023/03/28 02:26:57;;;;;;;13.77;8.68;;;11.50;87.60;;;;;;4589062;19;20595;-29
2023/03/28 02:28:31;;;;;;;13.07;8.13;;;11.50;87.60;;;;;;4590268;19;20484;-32
2023/03/28 02:30:03;;;;;;;13.73;8.57;;;11.40;87.70;;;;;;4590437;19;20425;-31
2023/03/28 02:31:34;;;;;;;15.50;9.32;;;11.40;88.10;;;;;;4589942;19;21017;-30
2023/03/28 02:33:29;;;;;;;12.80;7.87;;;11.50;88.40;;;;;;4590160;19;20015;-29
2023/03/28 02:35:03;;;;;;;12.73;8.17;;;11.40;88.10;;;;;;4589330;19;20429;-29
2023/03/28 02:36:51;;;;;;;13.73;7.57;;;11.40;88.40;;;;;;4590304;19;20413;-30
2023/03/28 02:38:47;;;;;;;12.20;7.30;;;11.40;89.10;;;;;;4590125;19;20469;-29
2023/03/28 02:40:43;;;;;;;13.07;7.97;;;11.50;88.80;;;;;;4589147;19;21063;-31
2023/03/28 02:42:38;;;;;;;12.60;7.07;;;11.50;89.10;;;;;;4589421;19;20409;-32
2023/03/28 02:44:26;;;;;;;12.03;7.23;;;11.50;89.40;;;;;;4589325;19;20528;-29
2023/03/28 02:46:04;;;;;;;12.43;7.63;;;11.50;89.30;;;;;;4589600;19;21001;-31
2023/03/28 02:47:46;;;;;;;10.63;7.43;;;11.50;89.50;;;;;;4588105;19;20879;-35
2023/03/28 02:49:26;;;;;;;10.20;6.37;;;11.50;89.50;;;;;;4589342;19;20570;-31
2023/03/28 02:51:06;;;;;;;9.80;6.33;;;11.50;89.90;;;;;;4589557;19;21144;-29
2023/03/28 02:52:57;;;;;;;13.43;7.93;;;11.50;89.70;;;;;;4589294;19;20487;-30
2023/03/28 02:54:52;;;;;;;11.07;6.43;;;11.50;89.60;;;;;;4589418;19;20436;-32
2023/03/28 02:56:43;;;;;;;10.80;5.90;;;11.50;90.00;;;;;;4589318;19;20444;-30
2023/03/28 02:59:08;;;;;;;9.50;6.10;;;11.50;90.10;;;;;;4589245;19;20467;-31
2023/03/28 03:00:39;;;;;;;11.55;6.45;;;11.50;90.20;;;;;;4588997;19;20437;-30
2023/03/28 03:02:15;;;;;;;10.82;6.05;;;11.50;90.20;;;;;;4588912;19;20100;-34
2023/03/28 03:03:48;;;;;;;8.50;5.23;;;11.50;90.20;;;;;;4588269;19;20044;-31
2023/03/28 03:05:20;;;;;;;10.83;5.13;;;11.40;90.20;;;;;;4589323;19;20565;-30
2023/03/28 03:06:53;;;;;;;9.73;5.10;;;11.50;90.20;;;;;;4588281;19;20453;-29
2023/03/28 03:08:26;;;;;;;9.97;5.00;;;11.50;90.40;;;;;;4588760;19;20845;-32
2023/03/28 03:09:59;;;;;;;7.87;4.63;;;11.40;90.20;;;;;;4588997;19;20461;-29
2023/03/28 03:11:31;;;;;;;9.73;5.23;;;11.50;90.30;;;;;;4588994;19;20432;-32
2023/03/28 03:13:02;;;;;;;8.05;5.20;;;11.50;90.30;;;;;;4588941;19;20986;-30
2023/03/28 03:14:35;;;;;;;8.50;4.37;;;11.50;90.50;;;;;;4588679;19;20484;-30
2023/03/28 03:16:07;;;;;;;7.10;4.40;;;11.50;90.60;;;;;;4588850;19;20504;-31
2023/03/28 03:17:40;;;;;;;8.30;5.13;;;11.50;90.60;;;;;;4588884;19;20833;-29
2023/03/28 03:19:12;;;;;;;7.33;4.40;;;11.40;90.60;;;;;;4588887;19;20536;-31
2023/03/28 03:20:46;;;;;;;8.60;4.60;;;11.40;90.60;;;;;;4589023;19;20436;-30
2023/03/28 03:22:18;;;;;;;7.17;3.90;;;11.50;90.50;;;;;;4588665;19;20006;-29
2023/03/28 03:23:50;;;;;;;7.57;4.07;;;11.50;90.60;;;;;;4588780;19;20463;-32
2023/03/28 03:25:22;;;;;;;7.33;3.87;;;11.50;90.80;;;;;;4589110;19;20440;-33
2023/03/28 03:26:53;;;;;;;7.03;4.40;;;11.50;90.70;;;;;;4588187;19;20479;-30
2023/03/28 03:28:24;;;;;;;7.25;3.83;;;11.50;90.70;;;;;;4589228;19;20398;-30
2023/03/28 03:29:59;;;;;;;6.30;3.50;;;11.50;90.70;;;;;;4588928;19;20007;-29
2023/03/28 03:31:32;;;;;;;;;;;11.50;90.70;;;;;;4589411;19;20485;-30
2023/03/28 03:33:09;;;;;;;5.57;3.30;;;11.50;90.80;;;;;;4588648;19;19918;-29
2023/03/28 03:34:40;;;;;;;5.93;3.47;;;11.50;90.60;;;;;;4589114;19;20464;-29
2023/03/28 03:36:16;;;;;;;5.57;3.33;;;11.50;90.80;;;;;;4588353;19;20475;-31
2023/03/28 03:37:47;;;;;;;4.90;2.80;;;11.50;90.80;;;;;;4591057;19;20500;-30
2023/03/28 03:41:11;;;;;;;6.03;3.42;;;11.50;90.90;;;;;;4590801;19;20353;-30
2023/03/28 03:42:44;;;;;;;4.30;2.50;;;11.40;91.00;;;;;;4591822;19;20010;-30
2023/03/28 03:44:15;;;;;;;5.03;2.70;;;11.50;91.00;;;;;;4592233;19;20465;-36
2023/03/28 03:45:46;;;;;;;6.38;2.95;;;11.40;91.00;;;;;;4590120;19;20015;-28
2023/03/28 03:47:18;;;;;;;3.83;2.13;;;11.30;91.10;;;;;;4590045;19;20363;-27
2023/03/28 03:48:53;;;;;;;5.63;2.73;;;11.40;91.20;;;;;;4590700;19;20460;-30
2023/03/28 03:50:24;;;;;;;4.82;2.47;;;11.40;91.30;;;;;;4590586;19;20444;-31
2023/03/28 03:51:55;;;;;;;3.97;2.10;;;11.40;91.20;;;;;;4591031;19;20010;-33
2023/03/28 03:53:26;;;;;;;3.95;2.45;;;11.50;91.20;;;;;;4589308;19;20010;-29
2023/03/28 03:54:57;;;;;;;3.85;2.08;;;11.50;91.20;;;;;;4592263;19;20014;-32
2023/03/28 03:56:28;;;;;;;3.67;2.13;;;11.50;91.10;;;;;;4589048;19;20014;-32
2023/03/28 03:58:06;;;;;;;4.53;2.03;;;11.50;91.10;;;;;;4590706;19;20480;-32
2023/03/28 03:59:37;;;;;;;3.92;2.40;;;11.60;91.10;;;;;;4589826;19;20433;-30
2023/03/28 04:01:12;;;;;;;3.60;2.35;;;11.60;91.10;;;;;;4590205;19;20002;-30
2023/03/28 04:02:45;;;;;;;4.10;2.43;;;11.50;91.10;;;;;;4590748;19;20014;-28
2023/03/28 04:04:17;;;;;;;2.73;1.97;;;11.60;91.10;;;;;;4590488;19;21024;-29
2023/03/28 04:05:48;;;;;;;4.63;2.80;;;11.60;91.10;;;;;;4591009;19;20454;-29
2023/03/28 04:07:20;;;;;;;2.97;2.08;;;11.60;91.10;;;;;;4588190;19;20026;-31
2023/03/28 04:08:51;;;;;;;3.22;2.13;;;11.60;91.20;;;;;;4590343;19;20014;-30
2023/03/28 04:10:24;;;;;;;4.23;2.20;;;11.60;91.30;;;;;;4590629;19;20022;-28
2023/03/28 04:11:57;;;;;;;5.30;2.80;;;11.60;91.20;;;;;;4592815;19;20499;-31
2023/03/28 04:13:29;;;;;;;5.67;3.40;;;11.60;91.30;;;;;;4592142;19;21085;-29
2023/03/28 04:15:00;;;;;;;4.93;3.87;;;10.60;91.40;;;;;;4592269;19;21052;-32
2023/03/28 04:16:33;;;;;;;5.65;3.85;;;8.80;93.90;;;;;;4590314;19;20441;-29
2023/03/28 04:18:05;;;;;;;6.80;4.90;;;7.70;95.70;;;;;;4590709;19;20017;-30
2023/03/28 04:19:39;;;;;;;6.87;5.00;;;7.20;96.80;;;;;;4588766;19;20441;-31
2023/03/28 04:21:11;;;;;;;;;;;6.90;97.90;;;;;;4589736;19;20452;-31
2023/03/28 04:22:42;;;;;;;8.43;5.93;;;6.80;98.10;;;;;;4588698;19;19915;-29
2023/03/28 04:24:14;;;;;;;8.95;7.00;;;6.60;98.60;;;;;;4589050;19;20473;-29
2023/03/28 04:25:48;;;;;;;8.17;6.77;;;6.50;99.90;;;;;;4589511;19;20023;-34
2023/03/28 04:27:19;;;;;;;8.87;6.00;;;6.50;99.70;;;;;;4588571;19;20457;-30
2023/03/28 04:28:52;;;;;;;8.07;5.30;;;6.40;99.90;;;;;;4590441;19;20832;-30
2023/03/28 04:30:24;;;;;;;10.37;5.40;;;6.40;99.90;;;;;;4589479;19;20014;-29
2023/03/28 04:31:58;;;;;;;7.13;4.60;;;7.00;99.90;;;;;;4589876;19;20482;-33
2023/03/28 04:33:32;;;;;;;6.77;4.43;;;7.80;99.00;;;;;;4590287;19;20037;-31
2023/03/28 04:35:05;;;;;;;5.73;3.57;;;8.40;97.90;;;;;;4588410;19;20445;-30
2023/03/28 04:36:39;;;;;;;7.30;3.93;;;8.90;97.00;;;;;;4588981;19;21092;-30
2023/03/28 04:38:11;;;;;;;5.93;4.07;;;9.30;96.50;;;;;;4589878;19;20429;-30
2023/03/28 04:39:46;;;;;;;7.67;4.37;;;9.60;96.10;;;;;;4590004;19;20445;-29
2023/03/28 04:41:17;;;;;;;8.57;5.10;;;9.90;95.80;;;;;;4589950;19;20795;-29
2023/03/28 04:42:49;;;;;;;6.80;4.40;;;10.10;95.50;;;;;;4589405;19;20436;-29
2023/03/28 04:44:21;;;;;;;8.23;5.15;;;10.20;95.30;;;;;;4586826;19;20011;-31
2023/03/28 04:45:54;;;;;;;8.80;4.63;;;10.40;95.30;;;;;;4588006;19;20491;-28
2023/03/28 04:47:27;;;;;;;;;;;10.50;95.10;;;;;;4590099;19;20429;-33
2023/03/28 04:48:58;;;;;;;9.82;3.60;;;10.60;95.10;;;;;;4589572;19;19934;-31
2023/03/28 04:50:29;;;;;;;6.22;4.07;;;10.70;94.80;;;;;;4589879;19;20380;-31
2023/03/28 04:52:00;;;;;;;7.07;4.28;;;10.70;94.60;;;;;;4589735;19;20014;-30
2023/03/28 04:53:32;;;;;;;8.63;4.47;;;10.80;94.40;;;;;;4588347;19;20406;-28
2023/03/28 04:55:04;;;;;;;7.25;4.03;;;10.90;94.40;;;;;;4589180;19;20425;-36
2023/03/28 04:56:35;;;;;;;4.85;3.03;;;11.00;94.50;;;;;;4589619;19;20021;-32
2023/03/28 04:58:07;;;;;;;8.10;4.23;;;11.00;94.20;;;;;;4590036;19;20010;-33
2023/03/28 04:59:39;;;;;;;7.82;4.60;;;11.10;94.50;;;;;;4589176;19;20508;-30
2023/03/28 05:01:12;;;;;;;5.80;3.73;;;11.20;94.50;;;;;;4589538;19;20014;-30
2023/03/28 05:02:43;;;;;;;6.30;3.90;;;11.20;94.50;;;;;;4588358;19;20425;-30
2023/03/28 05:04:18;;;;;;;5.75;3.83;;;11.20;94.60;;;;;;4589524;19;20434;-30
2023/03/28 05:05:51;;;;;;;4.33;3.13;;;11.30;94.90;;;;;;4593072;19;20033;-30
2023/03/28 05:07:25;;;;;;;3.30;2.87;;;11.20;94.90;;;;;;4591808;19;20457;-29
2023/03/28 05:08:56;;;;;;;4.17;2.73;;;11.20;95.00;;;;;;4593433;19;20476;-31
2023/03/28 05:10:27;;;;;;;4.28;3.15;;;11.30;95.00;;;;;;4594007;19;20488;-29
2023/03/28 05:11:59;;;;;;;4.45;2.70;;;11.30;95.20;;;;;;4593672;19;20015;-29
2023/03/28 05:13:33;;;;;;;4.47;2.83;;;11.30;95.30;;;;;;4592728;19;20018;-30
2023/03/28 05:15:05;;;;;;;4.07;2.83;;;11.30;95.30;;;;;;4592521;19;20997;-31
2023/03/28 05:16:37;;;;;;;4.37;3.07;;;11.40;95.40;;;;;;4593468;19;20441;-33
2023/03/28 05:18:08;;;;;;;8.23;4.35;;;11.40;95.40;;;;;;4593570;19;20456;-29
2023/03/28 05:19:39;;;;;;;11.13;8.27;;;11.40;95.40;;;;;;4592879;19;20328;-31
2023/03/28 05:21:11;;;;;;;24.77;17.33;;;11.40;95.40;;;;;;4592691;19;20021;-29
2023/03/28 05:22:43;;;;;;;29.58;20.40;;;11.40;95.40;;;;;;4592813;19;20461;-30
2023/03/28 05:24:14;;;;;;;6.07;4.22;;;11.40;95.40;;;;;;4593485;19;20023;-29
2023/03/28 05:25:51;;;;;;;5.47;3.70;;;11.30;95.40;;;;;;4592102;19;20033;-29
2023/03/28 05:27:22;;;;;;;4.83;3.20;;;11.20;95.50;;;;;;4592334;19;20432;-30
2023/03/28 05:28:55;;;;;;;;;;;11.10;95.40;;;;;;4594554;19;21029;-33
2023/03/28 05:30:26;;;;;;;25.33;20.17;;;11.00;95.60;;;;;;4593606;19;19921;-32
2023/03/28 05:31:59;;;;;;;15.90;14.30;;;10.80;95.20;;;;;;4593677;19;20440;-31
2023/03/28 05:33:31;;;;;;;16.40;14.90;;;10.70;95.50;;;;;;4593395;19;20475;-33
2023/03/28 05:35:04;;;;;;;9.25;8.32;;;10.60;95.40;;;;;;4593016;19;20460;-29
2023/03/28 05:36:37;;;;;;;12.30;11.00;;;10.50;95.30;;;;;;4592266;19;20087;-30
2023/03/28 05:38:08;;;;;;;10.38;8.70;;;10.40;95.40;;;;;;4590578;19;20448;-29
2023/03/28 05:39:41;;;;;;;9.83;7.60;;;10.40;95.10;;;;;;4592653;19;20030;-32
2023/03/28 05:41:12;;;;;;;9.43;6.65;;;10.30;95.00;;;;;;4592861;19;20452;-28
2023/03/28 05:42:45;;;;;;;7.93;5.70;;;10.20;94.90;;;;;;4593091;19;20034;-31
2023/03/28 05:44:17;;;;;;;11.00;7.90;;;10.10;95.10;;;;;;4593093;19;20021;-30
2023/03/28 05:45:49;;;;;;;13.32;8.70;;;10.10;95.10;;;;;;4593172;19;20474;-30
2023/03/28 05:47:20;;;;;;;8.60;5.60;;;10.20;95.10;;;;;;4591794;19;20468;-30
2023/03/28 05:48:53;;;;;;;7.53;5.07;;;10.30;94.70;;;;;;4591988;19;20006;-30
2023/03/28 05:50:25;;;;;;;9.65;5.97;;;10.50;94.50;;;;;;4591908;19;20424;-29
2023/03/28 05:51:56;;;;;;;9.77;5.57;;;10.50;94.10;;;;;;4592283;19;20079;-32
2023/03/28 05:53:27;;;;;;;7.28;4.00;;;10.50;93.90;;;;;;4592290;19;20018;-32
2023/03/28 05:54:59;;;;;;;;;;;10.60;94.00;;;;;;4593428;19;20079;-31
2023/03/28 05:56:34;;;;;;;6.47;4.33;;;10.60;94.30;;;;;;4591226;19;20281;-30
2023/03/28 05:58:06;;;;;;;6.77;4.07;;;10.50;93.80;;;;;;4591480;19;20425;-30
2023/03/28 05:59:39;;;;;;;;;;;10.50;94.10;;;;;;4593083;19;20468;-30
2023/03/28 06:01:11;;;;;;;7.65;4.93;;;10.50;93.90;;;;;;4592859;19;19919;-30
2023/03/28 06:02:43;;;;;;;8.20;5.00;;;10.50;93.90;;;;;;4591469;19;20014;-30
2023/03/28 06:04:14;;;;;;;6.40;4.32;;;10.70;94.00;;;;;;4592494;19;20510;-31
2023/03/28 06:05:46;;;;;;;;;;;10.60;93.60;;;;;;4593814;19;20066;-29
2023/03/28 06:07:18;;;;;;;5.75;3.90;;;10.70;93.70;;;;;;4592477;19;20327;-30
2023/03/28 06:08:49;;;;;;;6.40;4.03;;;10.70;93.50;;;;;;4592210;19;20100;-31
2023/03/28 06:10:20;;;;;;;5.50;3.80;;;10.80;93.80;;;;;;4592218;19;20018;-29
2023/03/28 06:11:52;;;;;;;5.40;4.03;;;11.00;93.50;;;;;;4592737;19;20037;-30
2023/03/28 06:13:23;;;;;;;5.60;3.78;;;11.10;93.00;;;;;;4592956;19;20011;-29
2023/03/28 06:14:55;;;;;;;6.78;4.20;;;10.90;92.70;;;;;;4593049;19;20334;-30
2023/03/28 06:16:28;;;;;;;5.37;3.50;;;10.90;92.50;;;;;;4592003;19;20015;-30
2023/03/28 06:17:59;;;;;;;4.93;3.33;;;10.90;92.60;;;;;;4592949;19;20429;-30
2023/03/28 06:19:30;;;;;;;8.30;4.35;;;10.80;92.50;;;;;;4591607;19;20010;-30
2023/03/28 06:21:03;;;;;;;7.10;3.80;;;10.70;92.30;;;;;;4592595;19;20011;-29
2023/03/28 06:22:35;;;;;;;7.15;3.25;;;10.60;92.40;;;;;;4591860;19;21106;-30
2023/03/28 06:24:09;;;;;;;6.90;4.10;;;10.50;92.60;;;;;;4592712;19;20014;-30
2023/03/28 06:25:42;;;;;;;6.50;4.50;;;10.50;92.60;;;;;;4592775;19;20421;-32
2023/03/28 06:27:13;;;;;;;6.00;2.95;;;10.60;92.70;;;;;;4592139;19;20444;-29
2023/03/28 06:28:44;;;;;;;5.30;2.92;;;10.60;92.70;;;;;;4592392;19;20007;-30
2023/03/28 06:30:15;;;;;;;6.40;3.83;;;10.50;92.30;;;;;;4592098;19;20031;-33
2023/03/28 06:31:49;;;;;;;5.23;3.37;;;10.60;92.70;;;;;;4592791;19;20018;-30
2023/03/28 06:33:19;;;;;;;6.18;3.40;;;10.50;92.50;;;;;;4591937;19;20425;-29
2023/03/28 06:34:51;;;;;;;4.95;3.10;;;10.30;92.40;;;;;;4592354;19;20006;-32
2023/03/28 06:36:22;;;;;;;6.22;4.50;;;10.40;92.50;;;;;;4591362;19;20032;-29
2023/03/28 06:37:54;;;;;;;6.43;4.53;;;10.40;92.30;;;;;;4592263;19;20456;-30
2023/03/28 06:39:27;;;;;;;7.10;4.33;;;10.50;92.60;;;;;;4592022;19;20429;-29
2023/03/28 06:40:59;;;;;;;6.70;4.13;;;10.60;92.40;;;;;;4589155;19;20479;-33
2023/03/28 06:42:31;;;;;;;7.68;4.15;;;10.80;92.20;;;;;;4591329;19;20532;-29
2023/03/28 06:44:04;;;;;;;6.10;3.80;;;10.80;92.10;;;;;;4589743;19;20010;-30
2023/03/28 06:45:37;;;;;;;6.03;3.20;;;10.70;91.70;;;;;;4591225;19;20451;-33
2023/03/28 06:47:09;;;;;;;4.87;3.20;;;10.70;91.60;;;;;;4591018;19;20453;-30
2023/03/28 06:48:42;;;;;;;5.00;3.57;;;10.60;91.50;;;;;;4592034;19;20776;-29
2023/03/28 06:50:13;;;;;;;4.07;3.10;;;10.60;91.80;;;;;;4592479;19;20432;-32
2023/03/28 06:51:45;;;;;;;3.90;2.33;;;10.50;91.60;;;;;;4591910;19;20468;-30
2023/03/28 06:53:18;;;;;;;4.80;2.83;;;10.50;91.70;;;;;;4592049;19;20433;-30
2023/03/28 06:54:50;;;;;;;6.18;3.08;;;10.50;91.70;;;;;;4592285;19;20786;-31
2023/03/28 06:56:21;;;;;;;5.47;3.20;;;10.70;92.00;;;;;;4592310;19;20018;-33
2023/03/28 06:57:53;;;;;;;5.43;3.10;;;10.60;91.80;;;;;;4590897;19;20441;-31
2023/03/28 06:59:24;;;;;;;4.90;2.65;;;10.70;91.70;;;;;;4591625;19;20026;-31
2023/03/28 07:00:57;;;;;;;7.68;3.47;;;10.60;91.10;;;;;;4592376;19;20085;-31
2023/03/28 07:02:30;;;;;;;7.63;3.30;;;10.50;91.00;;;;;;4590711;19;20418;-30
2023/03/28 07:04:02;;;;;;;6.93;3.47;;;10.50;91.10;;;;;;4591220;19;20460;-30
2023/03/28 07:05:40;;;;;;;6.70;4.50;;;10.50;91.10;;;;;;4591699;19;20574;-31
2023/03/28 07:07:14;;;;;;;13.53;8.80;;;10.60;91.00;;;;;;4590730;19;21032;-30
2023/03/28 07:08:45;;;;;;;9.30;5.53;;;10.50;90.80;;;;;;4589985;19;20429;-30
2023/03/28 07:10:16;;;;;;;10.50;7.20;;;10.60;91.20;;;;;;4590326;19;20481;-32
2023/03/28 07:11:48;;;;;;;11.38;9.35;;;10.70;91.30;;;;;;4590385;19;20021;-31
2023/03/28 07:13:19;;;;;;;28.10;25.45;;;10.80;91.30;;;;;;4590877;19;20073;-34
2023/03/28 07:14:50;;;;;;;45.38;41.58;;;10.80;91.10;;;;;;4590805;19;20015;-29
2023/03/28 07:16:21;;;;;;;5.65;4.97;;;10.80;90.90;;;;;;4590986;19;20015;-32
2023/03/28 07:17:56;;;;;;;4.17;3.20;;;10.60;90.40;;;;;;4591811;19;20007;-30
2023/03/28 07:19:27;;;;;;;;;;;10.50;90.20;;;;;;4593012;19;20515;-30
2023/03/28 07:21:10;;;;;;;6.40;2.67;;;10.30;90.40;;;;;;4590836;19;19914;-31
2023/03/28 07:22:41;;;;;;;10.60;5.83;;;10.40;90.60;;;;;;4587192;19;20506;-30
2023/03/28 07:24:12;;;;;;;37.03;18.52;;;10.40;90.10;;;;;;4592702;19;20524;-32
2023/03/28 07:25:44;;;;;;;18.15;9.10;;;10.20;89.50;;;;;;4590486;19;20010;-30
2023/03/28 07:27:16;;;;;;;12.83;6.93;;;10.20;89.90;;;;;;4586952;19;20018;-30
2023/03/28 07:28:48;;;;;;;;;;;10.10;88.40;;;;;;4591160;19;20436;-30
2023/03/28 07:30:20;;;;;;;14.82;7.90;;;10.10;88.00;;;;;;4592813;19;19915;-30
2023/03/28 07:31:51;;;;;;;6.45;3.75;;;10.20;88.70;;;;;;4590791;19;20002;-30
2023/03/28 07:33:22;;;;;;;3.72;2.13;;;10.40;89.20;;;;;;4590368;19;20025;-31
2023/03/28 07:34:54;;;;;;;;;;;10.20;85.80;;;;;;4591850;19;20027;-34
2023/03/28 07:36:26;;;;;;;3.57;2.30;;;10.10;86.30;;;;;;4590384;19;19945;-31
2023/03/28 07:37:57;;;;;;;4.78;2.30;;;10.00;85.60;;;;;;4589960;19;20453;-32
2023/03/28 07:39:28;;;;;;;;;;;9.80;85.20;;;;;;4591416;19;20098;-32
2023/03/28 07:41:00;;;;;;;3.77;2.37;;;9.80;85.90;;;;;;4588630;19;19926;-31
2023/03/28 07:42:31;;;;;;;3.75;1.98;;;10.00;86.20;;;;;;4587822;19;20538;-30
2023/03/28 07:44:02;;;;;;;2.72;1.80;;;10.00;85.30;;;;;;4588131;19;20098;-30
2023/03/28 07:45:33;;;;;;;3.03;1.70;;;9.90;83.30;;;;;;4588913;19;20014;-30
2023/03/28 07:47:04;;;;;;;2.90;1.98;;;9.80;83.70;;;;;;4588960;19;20013;-30
2023/03/28 07:48:36;;;;;;;2.63;1.63;;;9.90;84.50;;;;;;4590775;19;20027;-32
2023/03/28 07:50:08;;;;;;;3.83;1.63;;;10.00;83.80;;;;;;4590793;19;20507;-30
2023/03/28 07:51:39;;;;;;;3.28;1.95;;;10.20;83.40;;;;;;4589925;19;20074;-30
2023/03/28 07:53:12;;;;;;;4.30;2.13;;;10.20;82.70;;;;;;4590263;19;20033;-30
2023/03/28 07:54:44;;;;;;;3.83;2.25;;;10.30;82.50;;;;;;4589395;19;21106;-31
2023/03/28 07:56:15;;;;;;;4.30;2.50;;;10.20;83.20;;;;;;4589655;19;20062;-30
2023/03/28 07:57:46;;;;;;;11.13;6.20;;;10.20;82.40;;;;;;4590637;19;20354;-31
2023/03/28 07:59:18;;;;;;;13.38;7.40;;;10.00;82.60;;;;;;4590480;19;20372;-31
2023/03/28 08:00:49;;;;;;;9.52;4.93;;;10.00;82.50;;;;;;4589944;19;20006;-31
2023/03/28 08:02:20;;;;;;;;;;;10.20;83.60;;;;;;4588522;19;20034;-31
2023/03/28 08:03:52;;;;;;;2.70;1.50;;;10.30;83.30;;;;;;4589294;19;20326;-31
2023/03/28 08:05:23;;;;;;;6.97;4.00;;;10.30;82.70;;;;;;4590608;19;20483;-31
2023/03/28 08:06:54;;;;;;;9.45;4.88;;;10.00;81.20;;;;;;4587480;19;20017;-31
2023/03/28 08:08:26;;;;;;;7.22;3.92;;;10.10;81.30;;;;;;4589513;19;20073;-31
2023/03/28 08:09:57;;;;;;;4.25;1.67;;;10.10;82.10;;;;;;4591032;19;20019;-31
2023/03/28 08:11:28;;;;;;;8.55;5.32;;;10.10;83.10;;;;;;4590870;19;20332;-31
2023/03/28 08:12:59;;;;;;;4.00;2.03;;;10.10;82.90;;;;;;4589852;19;20010;-31
2023/03/28 08:14:30;;;;;;;5.07;2.53;;;10.10;83.60;;;;;;4589761;19;20025;-31